Time;durP1;ratioP1;P1;durP2;ratioP2;P2;SDS_P1;SDS_P2;PMS_P1;PMS_P2;Temp;Humidity;BMP_temperature;BMP_pressure;BME280_temperature;BME280_humidity;BME280_pressure;Samples;Min_cycle;Max_cycle;Signal;HPM_P1;HPM_P2
2023/02/18 00:02:31;;;;;;;;;;;;;;;;;;;;;
2023/02/18 00:05:28;;;;;;;19.60;5.55;;;6.30;99.90;;;;;;4984105;28;20409;-82
2023/02/18 00:08:27;;;;;;;;;;;;;;;;;;;;;
2023/02/18 00:11:29;;;;;;;16.67;5.10;;;6.30;99.90;;;;;;4984608;28;20400;-81
2023/02/18 00:18:19;;;;;;;19.45;5.15;;;6.10;99.90;;;;;;4980512;28;20407;-81
2023/02/18 00:21:06;;;;;;;18.67;5.38;;;6.20;99.90;;;;;;4960706;28;20500;-81
2023/02/18 00:24:21;;;;;;;22.08;5.20;;;6.10;99.90;;;;;;4981523;28;20800;-81
2023/02/18 00:27:55;;;;;;;;;;;;;;;;;;;;;
2023/02/18 00:30:16;;;;;;;20.88;5.15;;;6.10;99.90;;;;;;4988768;28;20407;-82
2023/02/18 00:33:15;;;;;;;;;;;;;;;;;;;;;
2023/02/18 00:36:19;;;;;;;;;;;;;;;;;;;;;
2023/02/18 00:39:40;;;;;;;17.97;5.17;;;5.90;99.90;;;;;;4993544;28;20468;-82
2023/02/18 00:42:36;;;;;;;;;;;;;;;;;;;;;
2023/02/18 00:45:33;;;;;;;16.92;5.20;;;5.90;99.90;;;;;;4993975;28;20800;-80
2023/02/18 00:47:58;;;;;;;19.20;5.07;;;5.80;99.90;;;;;;4963376;28;20393;-80
2023/02/18 00:54:12;;;;;;;20.67;5.03;;;5.70;99.90;;;;;;4939770;28;20514;-82
2023/02/18 00:56:37;;;;;;;19.38;4.95;;;5.60;99.90;;;;;;4992913;28;20464;-82
2023/02/18 00:59:17;;;;;;;18.53;5.17;;;5.70;99.90;;;;;;4992237;28;20472;-82
2023/02/18 01:02:45;;;;;;;;;;;;;;;;;;;;;
2023/02/18 01:05:48;;;;;;;;;;;;;;;;;;;;;
2023/02/18 01:09:24;;;;;;;;;;;;;;;;;;;;;
2023/02/18 01:20:08;;;;;;;;;;;;;;;;;;;;;
2023/02/18 01:23:00;;;;;;;16.02;4.63;;;5.70;99.90;;;;;;4886220;29;20424;-82
2023/02/18 01:25:39;;;;;;;20.20;5.00;;;5.60;99.90;;;;;;4930946;29;20513;-82
2023/02/18 01:28:13;;;;;;;17.33;4.82;;;5.70;99.90;;;;;;4930363;29;20405;-81
2023/02/18 01:31:18;;;;;;;16.55;4.47;;;5.70;99.90;;;;;;4931629;29;20370;-81
2023/02/18 01:33:44;;;;;;;17.27;5.23;;;5.70;99.90;;;;;;5429629;23;20900;-82
2023/02/18 01:36:20;;;;;;;19.33;5.00;;;5.70;99.90;;;;;;5002487;28;20391;-82
2023/02/18 01:41:46;;;;;;;15.82;4.82;;;5.70;99.90;;;;;;4997991;28;20392;-83
2023/02/18 01:44:26;;;;;;;16.15;4.57;;;5.80;99.90;;;;;;4996824;28;20439;-83
2023/02/18 01:47:21;;;;;;;16.20;4.60;;;5.80;99.90;;;;;;4984464;28;21192;-83
2023/02/18 01:50:01;;;;;;;20.35;5.25;;;5.80;99.90;;;;;;4974351;28;20404;-82
2023/02/18 01:52:55;;;;;;;15.38;4.45;;;5.90;99.90;;;;;;4998062;28;20423;-82
2023/02/18 01:55:21;;;;;;;19.70;4.60;;;5.90;99.90;;;;;;4988318;28;20418;-83
2023/02/18 01:57:47;;;;;;;17.70;4.73;;;5.90;99.90;;;;;;4987008;28;20416;-83
2023/02/18 02:00:32;;;;;;;;;;;;;;;;;;;;;
2023/02/18 02:03:18;;;;;;;16.70;4.80;;;5.80;99.90;;;;;;4990815;28;20389;-83
2023/02/18 02:05:57;;;;;;;18.83;4.82;;;5.80;99.90;;;;;;4973749;28;20882;-83
2023/02/18 02:08:35;;;;;;;16.10;5.30;;;5.70;99.90;;;;;;4974068;28;20467;-83
2023/02/18 02:11:49;;;;;;;15.38;4.65;;;5.70;99.90;;;;;;4990796;28;20388;-82
2023/02/18 02:14:33;;;;;;;16.60;4.47;;;5.60;99.90;;;;;;4971449;28;20881;-82
2023/02/18 02:17:25;;;;;;;16.40;5.03;;;5.70;99.90;;;;;;4971676;28;20900;-81
2023/02/18 02:20:13;;;;;;;16.98;4.78;;;5.60;99.90;;;;;;4963599;28;20823;-82
2023/02/18 02:22:56;;;;;;;15.50;4.70;;;5.60;99.90;;;;;;4973447;28;20495;-82
2023/02/18 02:25:33;;;;;;;17.17;4.73;;;5.50;99.90;;;;;;4981370;28;20464;-83
2023/02/18 02:28:16;;;;;;;16.27;4.35;;;5.40;99.90;;;;;;4989656;28;20444;-81
2023/02/18 02:31:02;;;;;;;12.27;3.80;;;5.50;99.90;;;;;;4988412;28;20485;-83
2023/02/18 02:33:49;;;;;;;17.40;4.78;;;5.50;99.90;;;;;;4986650;28;20420;-81
2023/02/18 02:36:24;;;;;;;20.77;4.65;;;5.50;99.90;;;;;;4972640;28;20409;-83
2023/02/18 02:38:55;;;;;;;15.43;4.00;;;5.40;99.90;;;;;;4989142;28;20404;-82
2023/02/18 02:41:26;;;;;;;15.45;4.35;;;5.40;99.90;;;;;;4988244;28;20416;-81
2023/02/18 02:44:14;;;;;;;16.60;4.72;;;5.50;99.90;;;;;;4988388;28;20404;-82
2023/02/18 02:46:49;;;;;;;16.02;4.30;;;5.50;99.90;;;;;;4983621;28;20404;-81
2023/02/18 02:50:02;;;;;;;15.80;4.00;;;5.50;99.90;;;;;;4989149;28;20464;-82
2023/02/18 02:53:21;;;;;;;;;;;;;;;;;;;;;
2023/02/18 02:59:31;;;;;;;13.68;4.32;;;5.40;99.90;;;;;;4897750;29;20432;-82
2023/02/18 03:06:20;;;;;;;15.88;4.15;;;5.40;99.90;;;;;;4988918;28;20432;-82
2023/02/18 03:09:49;;;;;;;;;;;;;;;;;;;;;
2023/02/18 03:12:32;;;;;;;12.88;3.88;;;5.40;99.90;;;;;;4986929;28;20420;-83
2023/02/18 03:15:13;;;;;;;16.17;4.00;;;5.30;99.90;;;;;;4985339;28;20460;-82
2023/02/18 03:18:04;;;;;;;13.38;3.90;;;5.40;99.90;;;;;;4987496;28;20411;-83
2023/02/18 03:20:42;;;;;;;14.63;4.05;;;5.40;99.90;;;;;;4971721;28;20385;-82
2023/02/18 03:23:14;;;;;;;14.13;3.90;;;5.40;99.90;;;;;;4985910;28;21113;-84
2023/02/18 03:25:41;;;;;;;14.50;3.67;;;5.30;99.90;;;;;;4984604;28;20480;-82
2023/02/18 03:28:12;;;;;;;11.82;3.47;;;5.30;99.90;;;;;;4984703;28;20747;-81
2023/02/18 03:30:52;;;;;;;13.30;4.10;;;5.40;99.90;;;;;;4988611;28;20377;-81
2023/02/18 03:33:29;;;;;;;14.95;4.00;;;5.40;99.90;;;;;;4973543;28;20687;-81
2023/02/18 03:35:56;;;;;;;12.53;3.57;;;5.50;99.90;;;;;;4961056;28;20466;-84
2023/02/18 03:38:30;;;;;;;14.25;3.38;;;5.40;99.90;;;;;;4963504;28;20406;-82
2023/02/18 03:40:56;;;;;;;12.07;3.85;;;5.50;99.90;;;;;;4958168;28;20416;-82
2023/02/18 03:43:23;;;;;;;14.80;4.00;;;5.50;99.90;;;;;;4948493;28;21978;-81
2023/02/18 03:45:48;;;;;;;11.05;3.42;;;5.40;99.90;;;;;;4960306;28;20417;-82
2023/02/18 03:48:15;;;;;;;14.75;3.60;;;5.40;99.90;;;;;;4964947;28;20407;-82
2023/02/18 03:50:40;;;;;;;14.73;3.80;;;5.40;99.90;;;;;;4986983;28;20392;-81
2023/02/18 03:53:06;;;;;;;15.80;3.72;;;5.40;99.90;;;;;;4985600;28;20417;-81
2023/02/18 03:55:41;;;;;;;14.05;3.92;;;5.40;99.90;;;;;;4969756;28;20415;-82
2023/02/18 03:58:10;;;;;;;13.68;3.70;;;5.40;99.90;;;;;;4988036;28;20404;-82
2023/02/18 04:00:36;;;;;;;12.07;3.72;;;5.40;99.90;;;;;;4984851;28;20397;-83
2023/02/18 04:03:04;;;;;;;12.57;3.50;;;5.40;99.90;;;;;;4986600;28;20391;-83
2023/02/18 04:05:30;;;;;;;10.85;3.42;;;5.40;99.90;;;;;;4968999;28;20454;-83
2023/02/18 04:07:56;;;;;;;14.00;3.57;;;5.40;99.90;;;;;;4979992;28;20887;-83
2023/02/18 04:10:22;;;;;;;12.03;3.50;;;5.30;99.90;;;;;;4987794;28;20835;-83
2023/02/18 04:12:51;;;;;;;13.80;3.80;;;5.20;99.90;;;;;;4988705;28;20424;-83
2023/02/18 04:15:16;;;;;;;12.55;4.07;;;5.40;99.90;;;;;;4990431;28;20459;-82
2023/02/18 04:17:42;;;;;;;16.40;3.67;;;5.30;99.90;;;;;;4990697;28;20879;-83
2023/02/18 04:20:11;;;;;;;10.67;3.50;;;5.30;99.90;;;;;;4990235;28;20468;-82
2023/02/18 04:22:37;;;;;;;13.20;3.80;;;5.20;99.90;;;;;;4992411;28;20399;-84
2023/02/18 04:25:02;;;;;;;13.40;4.00;;;5.20;99.90;;;;;;4991055;28;20724;-81
2023/02/18 04:27:28;;;;;;;10.77;3.53;;;5.20;99.90;;;;;;4990069;28;20412;-82
2023/02/18 04:29:56;;;;;;;10.60;3.70;;;5.20;99.90;;;;;;4990284;28;20401;-84
2023/02/18 04:32:22;;;;;;;10.57;3.20;;;5.10;99.90;;;;;;4991704;28;20680;-81
2023/02/18 04:34:57;;;;;;;12.35;3.50;;;5.20;99.90;;;;;;4989750;28;20523;-82
2023/02/18 04:37:23;;;;;;;15.95;3.58;;;5.20;99.90;;;;;;4956471;28;21029;-82
2023/02/18 04:40:06;;;;;;;12.37;3.57;;;5.30;99.90;;;;;;4975674;28;20553;-81
2023/02/18 04:42:44;;;;;;;;;;;;;;;;;;;;;
2023/02/18 04:45:19;;;;;;;13.25;3.85;;;5.30;99.90;;;;;;4987669;28;20400;-82
2023/02/18 04:47:48;;;;;;;15.70;3.28;;;5.30;99.90;;;;;;4990832;28;20463;-81
2023/02/18 04:50:14;;;;;;;13.73;3.42;;;5.30;99.90;;;;;;4973849;28;20408;-81
2023/02/18 04:52:59;;;;;;;11.23;3.53;;;5.20;99.90;;;;;;4974859;28;20408;-83
2023/02/18 04:55:25;;;;;;;13.88;3.90;;;5.20;99.90;;;;;;4987887;28;20405;-83
2023/02/18 04:57:58;;;;;;;12.10;3.63;;;5.30;99.90;;;;;;4984367;28;20518;-83
2023/02/18 05:00:33;;;;;;;11.77;3.47;;;5.50;99.90;;;;;;4989654;28;20824;-83
2023/02/18 05:02:59;;;;;;;14.33;3.43;;;5.50;99.90;;;;;;4989651;28;20428;-82
2023/02/18 05:05:32;;;;;;;10.57;3.60;;;5.60;99.90;;;;;;4976252;28;20381;-82
2023/02/18 05:08:11;;;;;;;12.63;3.53;;;5.60;99.90;;;;;;4972793;28;20471;-82
2023/02/18 05:10:48;;;;;;;;;;;;;;;;;;;;;
2023/02/18 05:13:14;;;;;;;11.73;3.33;;;5.90;99.90;;;;;;4984865;28;20425;-82
2023/02/18 05:18:28;;;;;;;10.82;3.03;;;5.90;99.90;;;;;;4989709;28;20412;-80
2023/02/18 05:20:56;;;;;;;11.10;3.33;;;5.90;99.90;;;;;;4982667;28;20434;-82
2023/02/18 05:23:24;;;;;;;11.30;3.10;;;5.90;99.90;;;;;;4990466;28;20409;-80
2023/02/18 05:25:52;;;;;;;11.90;3.03;;;5.90;99.90;;;;;;4973960;28;20942;-80
2023/02/18 05:28:25;;;;;;;11.15;3.25;;;6.10;99.90;;;;;;4990897;28;20401;-81
2023/02/18 05:30:53;;;;;;;15.55;3.00;;;6.10;99.90;;;;;;4990148;28;20400;-81
2023/02/18 05:33:24;;;;;;;12.70;3.28;;;6.10;99.90;;;;;;4986407;28;20446;-81
2023/02/18 05:35:51;;;;;;;12.63;3.03;;;6.10;99.90;;;;;;4989851;28;20789;-82
2023/02/18 05:38:20;;;;;;;8.20;2.65;;;6.10;99.90;;;;;;4972749;28;20508;-82
2023/02/18 05:40:49;;;;;;;11.80;3.17;;;6.10;99.90;;;;;;4989940;28;20409;-81
2023/02/18 05:43:18;;;;;;;11.52;3.08;;;6.20;99.90;;;;;;4988034;28;20466;-81
2023/02/18 05:46:04;;;;;;;11.68;3.30;;;6.20;99.90;;;;;;4988928;28;20408;-81
2023/02/18 05:48:52;;;;;;;10.40;2.95;;;6.20;99.90;;;;;;4975486;28;20440;-81
2023/02/18 05:51:18;;;;;;;10.85;3.03;;;6.20;99.90;;;;;;4991806;28;20400;-81
2023/02/18 05:53:44;;;;;;;9.73;3.20;;;6.20;99.90;;;;;;4981858;28;20405;-82
2023/02/18 05:56:24;;;;;;;10.33;3.13;;;6.20;99.90;;;;;;4991663;28;20384;-81
2023/02/18 05:59:07;;;;;;;11.65;3.42;;;6.20;99.90;;;;;;4988743;28;20396;-82
2023/02/18 06:01:32;;;;;;;9.35;2.90;;;6.30;99.90;;;;;;4991491;28;20377;-81
2023/02/18 06:03:58;;;;;;;6.53;2.63;;;6.30;99.90;;;;;;4991752;28;20867;-81
2023/02/18 06:07:24;;;;;;;11.15;3.17;;;6.30;99.90;;;;;;4991548;28;20385;-81
2023/02/18 06:10:18;;;;;;;8.73;2.70;;;6.30;99.90;;;;;;4977499;28;20408;-82
2023/02/18 06:13:28;;;;;;;7.43;2.80;;;6.30;99.90;;;;;;4978671;28;20526;-82
2023/02/18 06:16:20;;;;;;;8.70;2.95;;;6.30;99.90;;;;;;4906683;29;20891;-81
2023/02/18 06:19:09;;;;;;;7.88;2.63;;;6.30;99.90;;;;;;4977546;28;20421;-81
2023/02/18 06:21:39;;;;;;;9.45;2.88;;;6.40;99.90;;;;;;4985938;28;20431;-81
2023/02/18 06:30:33;;;;;;;7.85;2.90;;;6.30;99.90;;;;;;4930206;28;20409;-81
2023/02/18 06:36:51;;;;;;;7.10;2.22;;;6.40;99.90;;;;;;4952235;28;20816;-82
2023/02/18 06:43:23;;;;;;;9.40;2.88;;;6.30;99.90;;;;;;4978132;28;20488;-83
2023/02/18 06:49:29;;;;;;;8.25;2.50;;;6.20;99.90;;;;;;4965747;28;20410;-82
2023/02/18 06:58:16;;;;;;;10.83;3.13;;;6.40;99.90;;;;;;4898278;29;20428;-81
2023/02/18 07:01:23;;;;;;;8.73;3.20;;;6.50;99.90;;;;;;4988336;28;20540;-82
2023/02/18 07:04:16;;;;;;;8.20;2.67;;;6.60;99.90;;;;;;4974197;28;20412;-81
2023/02/18 07:06:45;;;;;;;10.55;2.65;;;6.60;99.90;;;;;;4986539;28;20420;-80
2023/02/18 07:09:43;;;;;;;;;;;;;;;;;;;;;
2023/02/18 07:12:09;;;;;;;8.50;2.35;;;6.60;99.90;;;;;;4986698;28;20468;-81
2023/02/18 07:14:45;;;;;;;8.40;2.28;;;6.80;99.90;;;;;;4988978;28;20479;-81
2023/02/18 07:17:11;;;;;;;8.45;2.90;;;6.80;99.90;;;;;;4986907;28;20412;-82
2023/02/18 07:19:37;;;;;;;8.20;2.63;;;6.70;99.90;;;;;;4986509;28;20403;-82
2023/02/18 07:22:03;;;;;;;9.40;2.97;;;6.80;99.90;;;;;;4988530;28;20408;-81
2023/02/18 07:24:29;;;;;;;8.63;2.40;;;6.70;99.90;;;;;;4988628;28;20415;-81
2023/02/18 07:26:54;;;;;;;8.67;2.93;;;6.80;99.90;;;;;;4987225;28;20769;-82
2023/02/18 07:29:20;;;;;;;7.83;2.60;;;6.90;99.90;;;;;;4987876;28;20963;-82
2023/02/18 07:31:46;;;;;;;10.07;2.50;;;6.70;99.90;;;;;;4988103;28;21016;-82
2023/02/18 07:34:12;;;;;;;7.70;2.65;;;6.70;99.90;;;;;;4990449;28;20480;-81
2023/02/18 07:36:37;;;;;;;6.75;2.40;;;6.80;99.90;;;;;;4989535;28;20414;-83
2023/02/18 07:39:05;;;;;;;9.98;3.42;;;6.80;99.90;;;;;;4987152;28;20401;-82
2023/02/18 07:41:32;;;;;;;10.02;3.15;;;6.80;99.90;;;;;;4989350;28;20443;-82
2023/02/18 07:44:31;;;;;;;;;;;;;;;;;;;;;
2023/02/18 07:47:02;;;;;;;10.35;3.30;;;6.90;99.90;;;;;;4987100;28;20423;-82
2023/02/18 07:49:30;;;;;;;9.68;2.75;;;6.80;99.90;;;;;;4987010;28;20883;-82
2023/02/18 07:52:04;;;;;;;8.63;2.10;;;7.00;99.90;;;;;;4988547;28;20421;-80
2023/02/18 07:54:38;;;;;;;7.13;2.60;;;7.10;99.90;;;;;;4972084;28;20396;-79
2023/02/18 07:57:16;;;;;;;8.27;2.30;;;7.00;99.90;;;;;;4974533;28;20468;-81
2023/02/18 07:59:55;;;;;;;6.93;2.13;;;7.00;99.90;;;;;;4980285;28;20373;-81
2023/02/18 08:02:27;;;;;;;9.60;2.50;;;7.00;99.90;;;;;;4991460;28;20384;-81
2023/02/18 08:05:20;;;;;;;5.10;1.87;;;6.90;99.90;;;;;;4988209;28;20389;-81
2023/02/18 08:07:48;;;;;;;7.03;2.10;;;6.90;99.90;;;;;;4990137;28;20385;-81
2023/02/18 08:10:23;;;;;;;6.15;2.50;;;6.90;99.90;;;;;;4988806;28;20482;-79
2023/02/18 08:12:54;;;;;;;8.07;2.53;;;6.90;99.90;;;;;;4959940;28;20418;-81
2023/02/18 08:15:20;;;;;;;8.63;2.47;;;6.90;99.90;;;;;;4970013;28;20873;-82
2023/02/18 08:17:51;;;;;;;7.55;2.55;;;6.90;99.90;;;;;;4951394;28;20477;-82
2023/02/18 08:20:23;;;;;;;9.90;3.08;;;6.70;99.90;;;;;;4970138;28;20390;-80
2023/02/18 08:22:53;;;;;;;11.20;3.15;;;6.70;99.90;;;;;;4955241;28;20452;-81
2023/02/18 08:25:34;;;;;;;5.80;2.17;;;6.60;99.90;;;;;;4972703;28;20413;-80
2023/02/18 08:28:02;;;;;;;10.23;2.90;;;6.60;99.90;;;;;;4978464;28;20476;-82
2023/02/18 08:30:28;;;;;;;8.05;2.30;;;6.50;99.90;;;;;;4986519;28;20401;-81
2023/02/18 08:32:54;;;;;;;9.40;2.55;;;6.50;99.90;;;;;;4986183;28;20490;-81
2023/02/18 08:35:20;;;;;;;11.05;2.50;;;6.40;99.90;;;;;;4986275;28;20452;-81
2023/02/18 08:37:46;;;;;;;10.85;2.75;;;6.50;99.90;;;;;;4970612;28;20903;-81
2023/02/18 08:40:13;;;;;;;8.88;2.70;;;6.50;99.90;;;;;;4986030;28;20393;-81
2023/02/18 08:42:42;;;;;;;12.48;3.28;;;6.40;99.90;;;;;;4970627;28;20404;-81
2023/02/18 08:45:08;;;;;;;11.17;3.80;;;6.40;99.90;;;;;;4971943;28;20485;-80
2023/02/18 08:47:43;;;;;;;8.05;3.53;;;6.20;99.90;;;;;;4982646;28;20409;-81
2023/02/18 08:50:12;;;;;;;12.07;3.80;;;6.30;99.90;;;;;;4987093;28;20412;-81
2023/02/18 08:52:41;;;;;;;8.55;2.65;;;6.30;99.90;;;;;;4986756;28;20826;-80
2023/02/18 08:55:12;;;;;;;7.93;3.00;;;6.30;99.90;;;;;;4989211;28;20756;-81
2023/02/18 08:57:40;;;;;;;10.13;3.55;;;6.30;99.90;;;;;;4986424;28;20404;-80
2023/02/18 09:00:09;;;;;;;10.60;3.70;;;6.30;99.90;;;;;;4990378;28;20389;-80
2023/02/18 09:02:40;;;;;;;8.15;2.90;;;6.40;99.90;;;;;;4986073;28;20433;-80
2023/02/18 09:05:15;;;;;;;10.93;3.72;;;6.30;99.90;;;;;;4980895;28;20467;-80
2023/02/18 09:22:47;;;;;;;12.52;4.22;;;6.60;99.90;;;;;;4894518;29;20788;-80
2023/02/18 09:26:10;;;;;;;11.82;4.72;;;6.50;99.90;;;;;;4935024;29;20392;-81
2023/02/18 09:28:37;;;;;;;11.48;5.10;;;6.40;99.90;;;;;;4931996;29;20543;-77
2023/02/18 09:31:08;;;;;;;11.50;4.57;;;6.60;99.90;;;;;;4951388;29;20466;-82
2023/02/18 09:33:54;;;;;;;14.27;5.18;;;6.50;99.90;;;;;;4971718;28;20976;-82
2023/02/18 09:36:23;;;;;;;11.93;4.55;;;6.50;99.90;;;;;;4992430;28;20443;-82
2023/02/18 09:38:52;;;;;;;12.68;4.63;;;6.40;99.90;;;;;;4993010;28;20383;-82
2023/02/18 09:41:38;;;;;;;12.33;4.60;;;6.60;99.90;;;;;;4991529;28;20443;-82
2023/02/18 09:44:29;;;;;;;12.57;5.00;;;6.50;99.90;;;;;;4992729;28;20972;-82
2023/02/18 09:47:12;;;;;;;12.70;4.90;;;6.50;99.90;;;;;;4999798;28;20442;-82
2023/02/18 09:49:40;;;;;;;15.47;4.60;;;6.50;99.90;;;;;;4991057;28;20413;-81
2023/02/18 09:52:17;;;;;;;14.07;3.97;;;6.40;99.90;;;;;;4990083;28;20408;-81
2023/02/18 09:54:47;;;;;;;11.40;4.03;;;6.40;99.90;;;;;;4985887;28;20413;-82
2023/02/18 09:57:34;;;;;;;11.10;3.70;;;6.50;99.90;;;;;;4992119;28;20535;-82
2023/02/18 10:00:04;;;;;;;13.00;3.80;;;6.60;99.90;;;;;;4982772;28;20393;-83
2023/02/18 10:02:58;;;;;;;11.48;4.15;;;6.40;99.90;;;;;;4994520;28;20385;-82
2023/02/18 10:05:29;;;;;;;13.13;6.15;;;6.40;99.90;;;;;;4982379;28;20411;-82
2023/02/18 10:08:29;;;;;;;11.20;4.30;;;6.40;99.90;;;;;;4995675;28;20476;-83
2023/02/18 10:11:16;;;;;;;;;;;;;;;;;;;;;
2023/02/18 10:13:47;;;;;;;11.55;5.03;;;6.40;99.90;;;;;;4993206;28;20420;-81
2023/02/18 10:17:14;;;;;;;;;;;;;;;;;;;;;
2023/02/18 10:19:49;;;;;;;17.48;5.30;;;6.40;99.90;;;;;;5001798;28;20391;-81
2023/02/18 10:22:17;;;;;;;15.70;4.80;;;6.40;99.90;;;;;;4997019;28;20901;-81
2023/02/18 10:24:57;;;;;;;14.93;4.93;;;6.50;99.90;;;;;;4980732;28;20421;-81
2023/02/18 10:34:31;;;;;;;12.93;4.18;;;6.50;99.90;;;;;;4917729;29;20967;-81
2023/02/18 10:37:51;;;;;;;;;;;;;;;;;;;;;
2023/02/18 10:40:55;;;;;;;17.13;5.15;;;6.70;99.90;;;;;;4993297;28;20896;-82
2023/02/18 10:43:55;;;;;;;13.07;4.70;;;6.50;99.90;;;;;;5001510;28;20383;-83
2023/02/18 11:04:23;;;;;;;13.02;5.43;;;6.70;99.90;;;;;;4810361;29;20417;-82
2023/02/18 11:06:51;;;;;;;14.90;5.72;;;6.90;99.90;;;;;;4885635;28;20428;-82
2023/02/18 11:09:59;;;;;;;;;;;;;;;;;;;;;
2023/02/18 11:12:56;;;;;;;10.73;5.57;;;6.90;99.90;;;;;;5002435;28;20395;-83
2023/02/18 11:15:57;;;;;;;;;;;;;;;;;;;;;
2023/02/18 11:19:06;;;;;;;9.47;4.80;;;6.90;99.90;;;;;;4998293;28;21013;-84
2023/02/18 11:24:49;;;;;;;;;;;;;;;;;;;;;
2023/02/18 11:31:39;;;;;;;8.43;5.65;;;6.80;99.90;;;;;;4922275;29;20386;-81
2023/02/18 11:34:15;;;;;;;8.73;5.30;;;6.90;99.90;;;;;;4974622;28;20437;-82
2023/02/18 11:36:42;;;;;;;8.38;5.72;;;7.00;99.90;;;;;;4999201;28;20383;-83
2023/02/18 11:43:19;;;;;;;7.43;5.73;;;6.90;99.90;;;;;;4934406;29;20506;-82
2023/02/18 11:46:10;;;;;;;8.80;6.03;;;6.90;99.90;;;;;;4907860;29;20409;-81
2023/02/18 11:56:46;;;;;;;;;;;;;;;;;;;;;
2023/02/18 11:59:57;;;;;;;;;;;;;;;;;;;;;
2023/02/18 12:06:50;;;;;;;10.77;7.77;;;7.40;99.90;;;;;;4967652;28;20386;-82
2023/02/18 12:13:01;;;;;;;;;;;;;;;;;;;;;
2023/02/18 12:19:36;;;;;;;11.52;9.82;;;8.00;99.90;;;;;;4930061;29;20389;-82
2023/02/18 12:22:43;;;;;;;12.75;10.70;;;8.20;99.90;;;;;;4911836;29;20403;-84
2023/02/18 12:25:40;;;;;;;14.23;10.70;;;8.40;99.90;;;;;;4902160;29;20420;-83
2023/02/18 12:34:50;;;;;;;11.95;10.63;;;8.80;99.90;;;;;;4860906;29;20403;-81
2023/02/18 12:37:59;;;;;;;14.10;11.33;;;9.00;99.90;;;;;;4976382;28;20756;-82
2023/02/18 12:40:31;;;;;;;11.07;9.63;;;9.00;99.90;;;;;;4992015;28;20384;-82
2023/02/18 12:43:22;;;;;;;10.83;9.10;;;9.20;99.90;;;;;;4986302;28;20393;-81
2023/02/18 12:47:18;;;;;;;;;;;;;;;;;;;;;
2023/02/18 12:49:53;;;;;;;8.38;7.55;;;9.40;99.90;;;;;;4989076;28;20423;-82
2023/02/18 12:53:14;;;;;;;7.47;6.57;;;9.80;99.90;;;;;;4994467;28;20400;-82
2023/02/18 12:55:43;;;;;;;6.35;5.60;;;9.90;99.90;;;;;;4953262;28;20493;-83
2023/02/18 12:58:23;;;;;;;6.07;4.95;;;10.00;99.90;;;;;;4977163;28;20377;-81
2023/02/18 13:00:49;;;;;;;4.70;4.30;;;10.10;99.90;;;;;;4982697;28;20459;-82
2023/02/18 13:03:53;;;;;;;4.50;4.03;;;10.10;99.90;;;;;;4984142;28;20793;-83
2023/02/18 13:06:56;;;;;;;4.35;3.95;;;10.20;99.90;;;;;;4979174;28;20479;-82
2023/02/18 13:09:34;;;;;;;4.43;3.53;;;10.20;99.90;;;;;;5002554;28;20381;-82
2023/02/18 13:19:32;;;;;;;3.85;3.55;;;10.20;99.90;;;;;;4997863;28;20390;-82
2023/02/18 13:25:24;;;;;;;3.38;3.05;;;10.20;99.90;;;;;;4974193;28;20503;-82
2023/02/18 13:28:32;;;;;;;2.60;2.40;;;10.40;99.90;;;;;;4974847;28;20495;-83
2023/02/18 13:31:35;;;;;;;2.78;2.53;;;10.30;99.90;;;;;;4979198;28;20389;-83
2023/02/18 13:34:58;;;;;;;1.63;1.52;;;10.40;99.90;;;;;;4984669;28;20393;-83
2023/02/18 13:47:19;;;;;;;1.70;1.33;;;10.40;99.90;;;;;;4941661;28;20383;-82
2023/02/18 13:49:59;;;;;;;;;;;;;;;;;;;;;
2023/02/18 13:52:39;;;;;;;1.70;1.40;;;10.40;99.90;;;;;;4990935;28;20426;-83
2023/02/18 13:55:15;;;;;;;1.70;1.40;;;10.40;99.90;;;;;;4986737;28;20712;-85
2023/02/18 13:57:55;;;;;;;1.80;1.30;;;10.40;99.90;;;;;;5003149;28;20376;-85
2023/02/18 14:00:35;;;;;;;1.70;1.40;;;10.50;99.90;;;;;;5002765;28;20377;-83
2023/02/18 14:03:35;;;;;;;1.70;1.48;;;10.50;99.90;;;;;;5001286;28;20401;-84
2023/02/18 14:06:42;;;;;;;;;;;;;;;;;;;;;
2023/02/18 14:09:33;;;;;;;;;;;;;;;;;;;;;
2023/02/18 14:12:39;;;;;;;1.70;1.60;;;10.50;99.90;;;;;;5003555;28;20511;-84
2023/02/18 14:15:23;;;;;;;1.50;1.40;;;10.40;99.90;;;;;;5007047;28;20452;-84
2023/02/18 14:17:58;;;;;;;1.80;1.48;;;10.50;99.90;;;;;;5005744;28;20736;-83
2023/02/18 14:23:47;;;;;;;2.30;2.10;;;10.50;99.90;;;;;;4978909;28;20454;-84
2023/02/18 14:26:20;;;;;;;2.42;2.13;;;10.40;99.90;;;;;;5004410;28;20454;-83
2023/02/18 14:28:58;;;;;;;2.10;1.70;;;10.30;99.90;;;;;;5001930;28;20380;-85
2023/02/18 14:32:11;;;;;;;1.83;1.70;;;10.40;99.90;;;;;;5001140;28;20884;-82
2023/02/18 14:34:56;;;;;;;1.88;1.45;;;10.30;99.90;;;;;;5003778;28;20375;-82
2023/02/18 14:37:44;;;;;;;1.60;1.50;;;10.40;99.90;;;;;;5002923;28;20754;-87
2023/02/18 14:40:26;;;;;;;1.50;1.40;;;10.30;99.90;;;;;;4997793;28;20386;-84
2023/02/18 14:43:16;;;;;;;1.50;1.40;;;10.40;99.90;;;;;;5002904;28;20389;-86
2023/02/18 14:46:07;;;;;;;1.48;1.38;;;10.30;99.90;;;;;;4999767;28;20381;-84
2023/02/18 14:48:42;;;;;;;2.20;1.58;;;10.40;99.90;;;;;;5000381;28;20401;-84
2023/02/18 14:51:09;;;;;;;1.45;1.33;;;10.40;99.90;;;;;;5000598;28;20711;-84
2023/02/18 14:53:42;;;;;;;2.30;2.10;;;10.40;99.90;;;;;;5002716;28;20883;-84
2023/02/18 14:56:11;;;;;;;1.58;1.40;;;10.40;99.90;;;;;;5001195;28;20459;-84
2023/02/18 14:58:47;;;;;;;1.63;1.52;;;10.60;99.90;;;;;;4997319;28;20383;-84
2023/02/18 15:01:26;;;;;;;1.70;1.60;;;10.60;99.90;;;;;;5001802;28;20372;-84
2023/02/18 15:03:54;;;;;;;2.28;2.08;;;10.40;99.90;;;;;;5001037;28;20377;-84
2023/02/18 15:06:31;;;;;;;1.50;1.40;;;10.50;99.90;;;;;;5003502;28;20417;-85
2023/02/18 15:09:01;;;;;;;1.40;1.30;;;10.50;99.90;;;;;;5001536;28;20901;-86
2023/02/18 15:11:38;;;;;;;1.65;1.10;;;10.60;99.90;;;;;;5003327;28;20870;-82
2023/02/18 15:14:14;;;;;;;1.85;1.08;;;10.70;99.90;;;;;;4999995;28;20381;-83
2023/02/18 15:16:43;;;;;;;0.93;0.93;;;10.70;99.90;;;;;;4998557;28;20392;-84
2023/02/18 15:19:17;;;;;;;1.00;0.90;;;10.70;99.90;;;;;;5004456;28;20389;-84
2023/02/18 15:21:49;;;;;;;0.88;0.88;;;10.80;99.90;;;;;;5002303;28;20389;-83
2023/02/18 15:24:31;;;;;;;1.02;1.00;;;10.80;99.90;;;;;;5007945;28;20369;-82
2023/02/18 15:27:12;;;;;;;1.92;1.13;;;10.70;99.90;;;;;;4999025;28;20518;-84
2023/02/18 15:29:39;;;;;;;0.80;0.80;;;10.60;99.90;;;;;;4999033;28;20383;-83
2023/02/18 15:32:26;;;;;;;1.00;0.90;;;10.60;99.90;;;;;;4996363;28;20749;-84
2023/02/18 15:35:00;;;;;;;1.23;0.80;;;10.70;99.90;;;;;;4999861;28;20419;-85
2023/02/18 15:37:27;;;;;;;1.63;0.82;;;10.60;99.90;;;;;;4979843;28;20399;-83
2023/02/18 15:39:53;;;;;;;2.53;1.33;;;10.60;99.90;;;;;;5000006;28;20724;-80
2023/02/18 15:42:27;;;;;;;0.70;0.70;;;10.40;99.90;;;;;;4999226;28;20392;-83
2023/02/18 15:45:19;;;;;;;2.22;0.85;;;10.40;99.90;;;;;;4998906;28;20391;-82
2023/02/18 15:47:54;;;;;;;1.87;1.00;;;10.50;99.90;;;;;;5002747;28;20384;-82
2023/02/18 15:50:21;;;;;;;1.58;1.10;;;10.40;99.90;;;;;;4998261;28;20526;-82
2023/02/18 15:53:09;;;;;;;2.65;1.50;;;10.40;99.90;;;;;;4996373;28;20399;-83
2023/02/18 15:55:40;;;;;;;1.48;1.10;;;10.30;99.90;;;;;;4997774;28;20373;-85
2023/02/18 15:58:29;;;;;;;1.30;1.20;;;10.20;99.90;;;;;;4997689;28;20505;-82
2023/02/18 16:01:04;;;;;;;1.20;1.10;;;10.20;99.90;;;;;;4998316;28;20415;-84
2023/02/18 16:03:44;;;;;;;1.60;1.33;;;10.20;99.90;;;;;;4998577;28;20479;-83
2023/02/18 16:06:21;;;;;;;2.20;1.27;;;10.10;99.90;;;;;;5002242;28;20383;-83
2023/02/18 16:09:03;;;;;;;1.67;1.30;;;10.00;99.90;;;;;;4997328;28;20752;-83
2023/02/18 16:11:36;;;;;;;1.65;1.25;;;10.10;99.90;;;;;;5000888;28;20403;-82
2023/02/18 16:14:04;;;;;;;2.90;1.70;;;10.20;99.90;;;;;;4971116;28;20401;-81
2023/02/18 16:16:35;;;;;;;3.93;2.00;;;10.10;99.90;;;;;;4989041;28;20380;-79
2023/02/18 16:19:04;;;;;;;2.03;1.10;;;10.00;99.90;;;;;;4986589;28;20441;-80
2023/02/18 16:21:52;;;;;;;2.22;0.90;;;9.90;99.90;;;;;;4988522;28;20460;-80
2023/02/18 16:24:31;;;;;;;2.47;1.08;;;9.70;99.90;;;;;;4980086;28;20427;-80
2023/02/18 16:27:00;;;;;;;1.60;0.90;;;9.70;99.90;;;;;;4986840;28;20393;-80
2023/02/18 16:29:36;;;;;;;2.10;1.00;;;9.70;99.90;;;;;;4989809;28;20381;-80
2023/02/18 16:32:02;;;;;;;1.70;1.00;;;9.70;99.90;;;;;;4987715;28;20435;-81
2023/02/18 16:34:28;;;;;;;1.50;1.10;;;9.60;99.90;;;;;;4988058;28;20396;-81
2023/02/18 16:39:38;;;;;;;1.83;0.70;;;9.70;99.90;;;;;;4989481;28;20719;-82
2023/02/18 16:42:12;;;;;;;1.80;0.90;;;9.60;99.90;;;;;;4989893;28;20380;-82
2023/02/18 16:44:39;;;;;;;2.38;0.90;;;9.70;99.90;;;;;;4985647;28;20399;-81
2023/02/18 16:47:06;;;;;;;2.50;1.10;;;9.70;99.90;;;;;;4989263;28;20432;-83
2023/02/18 16:49:33;;;;;;;1.87;1.40;;;9.70;99.90;;;;;;4983315;28;20496;-81
2023/02/18 16:52:01;;;;;;;1.83;1.67;;;9.50;99.90;;;;;;4987084;28;20384;-81
2023/02/18 16:54:27;;;;;;;2.30;2.00;;;9.10;99.90;;;;;;4971991;28;20510;-81
2023/02/18 16:56:54;;;;;;;2.40;2.00;;;8.90;99.90;;;;;;4986486;28;20401;-82
2023/02/18 16:59:19;;;;;;;2.00;1.80;;;8.70;99.90;;;;;;4989090;28;20400;-87
2023/02/18 17:01:46;;;;;;;2.42;1.80;;;8.60;99.90;;;;;;4988370;28;20392;-82
2023/02/18 17:04:14;;;;;;;2.10;1.70;;;8.40;99.90;;;;;;4980022;28;20387;-82
2023/02/18 17:06:40;;;;;;;2.40;1.60;;;8.30;99.90;;;;;;4997907;28;20387;-82